createdAt,value
2023-01-17T00:05:11.111Z,15.97
2023-01-17T00:10:16.212Z,15.94
2023-01-17T00:15:20.159Z,15.94
2023-01-17T00:20:45.127Z,15.93
2023-01-17T00:26:05.716Z,15.96
2023-01-17T00:31:09.576Z,15.96
2023-01-17T00:36:12.244Z,15.97
2023-01-17T00:41:15.633Z,16.00
2023-01-17T00:46:36.665Z,15.99
2023-01-17T00:51:58.135Z,15.96
2023-01-17T00:57:18.943Z,15.90
2023-01-17T01:02:40.275Z,15.96
2023-01-17T01:08:01.049Z,15.96
2023-01-17T01:13:21.410Z,15.96
2023-01-17T01:18:42.215Z,15.98
2023-01-17T01:24:02.764Z,16.01
2023-01-17T01:29:23.304Z,16.01
2023-01-17T01:34:25.634Z,15.98
2023-01-17T01:39:28.158Z,15.99
2023-01-17T01:44:51.339Z,15.97
2023-01-17T01:49:53.464Z,15.99
2023-01-17T01:55:01.059Z,15.98
2023-01-17T02:00:08.660Z,15.99
2023-01-17T02:05:17.016Z,16.01
2023-01-17T02:10:19.322Z,16.00
2023-01-17T02:15:26.593Z,15.96
2023-01-17T02:20:52.637Z,16.02
2023-01-17T02:26:12.555Z,16.03
2023-01-17T02:31:56.095Z,16.03
2023-01-17T02:37:04.243Z,16.02
2023-01-17T02:42:14.758Z,16.01
2023-01-17T02:47:31.936Z,16.00
2023-01-17T02:52:42.728Z,15.99
2023-01-17T02:58:02.883Z,16.01
2023-01-17T03:03:36.955Z,16.02
2023-01-17T03:08:44.828Z,16.01
2023-01-17T03:13:46.823Z,16.02
2023-01-17T03:18:49.463Z,16.03
2023-01-17T03:23:52.095Z,16.03
2023-01-17T03:28:54.299Z,16.04
2023-01-17T03:33:56.327Z,16.04
2023-01-17T03:38:58.448Z,16.02
2023-01-17T03:44:01.093Z,16.04
2023-01-17T03:49:03.119Z,16.04
2023-01-17T03:54:05.553Z,16.06
2023-01-17T03:59:07.605Z,16.04
2023-01-17T04:04:09.810Z,16.06
2023-01-17T04:09:11.998Z,16.05
2023-01-17T04:14:14.134Z,16.05
2023-01-17T04:19:16.395Z,16.06
2023-01-17T04:24:18.527Z,16.05
2023-01-17T04:29:21.148Z,16.06
2023-01-17T04:34:23.585Z,16.06
2023-01-17T04:39:25.797Z,16.06
2023-01-17T04:44:27.949Z,16.05
2023-01-17T04:49:30.095Z,16.06
2023-01-17T04:54:32.116Z,16.06
2023-01-17T04:59:34.122Z,16.06
2023-01-17T05:04:36.245Z,16.08
2023-01-17T05:09:38.338Z,16.09
2023-01-17T05:14:40.493Z,16.09
2023-01-17T05:19:42.583Z,16.10
2023-01-17T05:24:46.221Z,16.09
2023-01-17T05:29:48.337Z,16.09
2023-01-17T05:34:51.220Z,16.09
2023-01-17T05:39:53.299Z,16.08
2023-01-17T05:44:55.396Z,16.08
2023-01-17T05:49:57.447Z,16.10
2023-01-17T05:54:59.453Z,16.09
2023-01-17T06:00:01.629Z,16.09
2023-01-17T06:05:04.326Z,16.11
2023-01-17T06:10:06.892Z,16.12
2023-01-17T06:15:09.388Z,16.12
2023-01-17T06:20:12.786Z,16.12
2023-01-17T06:25:14.863Z,16.11
2023-01-17T06:30:17.359Z,16.11
2023-01-17T06:35:19.913Z,16.11
2023-01-17T06:40:22.809Z,16.11
2023-01-17T06:45:24.812Z,16.11
2023-01-17T06:50:27.370Z,16.12
2023-01-17T06:55:31.205Z,16.13
2023-01-17T07:00:35.317Z,16.15
2023-01-17T07:05:37.605Z,16.13
2023-01-17T07:10:39.600Z,16.13
2023-01-17T07:15:41.741Z,16.11
2023-01-17T07:20:44.118Z,16.12
2023-01-17T07:26:12.419Z,16.10
2023-01-17T07:31:14.658Z,16.10
2023-01-17T07:36:16.680Z,16.12
2023-01-17T07:41:18.683Z,16.13
2023-01-17T07:46:20.771Z,16.13
2023-01-17T07:51:22.909Z,16.14
2023-01-17T07:56:25.368Z,16.15
2023-01-17T08:01:27.820Z,16.15
2023-01-17T08:06:30.288Z,16.16
2023-01-17T08:11:32.319Z,16.14
2023-01-17T08:16:34.447Z,16.13
2023-01-17T08:21:36.574Z,16.13
2023-01-17T08:26:38.711Z,16.15
2023-01-17T08:31:41.013Z,16.14
2023-01-17T08:36:44.281Z,16.14
2023-01-17T08:41:46.427Z,16.16
2023-01-17T08:46:49.281Z,16.17
2023-01-17T08:51:52.838Z,16.14
2023-01-17T08:56:55.813Z,16.14
2023-01-17T09:01:59.011Z,16.14
2023-01-17T09:07:01.202Z,16.14
2023-01-17T09:12:03.551Z,16.13
2023-01-17T09:17:08.695Z,16.13
2023-01-17T09:22:11.615Z,16.15
2023-01-17T09:27:13.655Z,16.12
2023-01-17T09:32:17.291Z,16.12
2023-01-17T09:37:19.391Z,16.13
2023-01-17T09:42:24.336Z,16.16
2023-01-17T09:47:31.971Z,16.17
2023-01-17T09:52:34.153Z,16.15
2023-01-17T09:58:03.751Z,16.14
2023-01-17T10:03:14.872Z,16.15
2023-01-17T10:08:40.808Z,16.16
2023-01-17T10:13:58.014Z,16.16
2023-01-17T10:19:17.262Z,16.17
2023-01-17T10:24:30.881Z,16.16
2023-01-17T10:29:36.397Z,16.15
2023-01-17T10:34:44.472Z,16.16
2023-01-17T10:39:49.213Z,16.17
2023-01-17T10:44:59.375Z,16.16
2023-01-17T10:50:05.260Z,16.19
2023-01-17T10:55:19.579Z,16.19
2023-01-17T11:00:52.755Z,16.18
2023-01-17T11:06:24.022Z,16.19
2023-01-17T11:11:32.921Z,16.19
2023-01-17T11:16:37.410Z,16.18
2023-01-17T11:21:41.103Z,16.21
2023-01-17T11:26:49.683Z,16.21
2023-01-17T11:31:51.805Z,16.21
2023-01-17T11:37:20.658Z,16.19
2023-01-17T11:42:37.774Z,16.18
2023-01-17T11:47:39.861Z,16.19
2023-01-17T11:52:41.904Z,16.20
2023-01-17T11:57:50.798Z,16.19
2023-01-17T12:02:55.816Z,16.22
2023-01-17T12:08:14.596Z,16.21
2023-01-17T12:13:47.273Z,16.23
2023-01-17T12:18:53.629Z,16.24
2023-01-17T12:24:04.849Z,16.25
2023-01-17T12:29:39.096Z,16.28
2023-01-17T12:34:50.955Z,16.27
2023-01-17T12:40:23.920Z,16.27
2023-01-17T12:45:38.507Z,16.23
2023-01-17T12:50:55.932Z,16.27
2023-01-17T12:56:06.812Z,16.28
2023-01-17T13:01:20.692Z,16.28
2023-01-17T13:06:32.094Z,16.31
2023-01-17T13:11:46.195Z,16.31
2023-01-17T13:17:25.689Z,16.33
2023-01-17T13:22:29.129Z,16.33
2023-01-17T13:27:43.941Z,16.32
2023-01-17T13:33:15.571Z,16.33
2023-01-17T13:38:40.029Z,16.33
2023-01-17T13:44:07.493Z,16.33
2023-01-17T13:49:42.744Z,16.30
2023-01-17T13:54:47.755Z,16.32
2023-01-17T13:59:50.260Z,16.31
2023-01-17T14:05:12.600Z,16.28
2023-01-17T14:10:41.864Z,16.28
2023-01-17T14:15:51.191Z,16.27
2023-01-17T14:21:07.167Z,16.26
2023-01-17T14:26:18.053Z,16.25
2023-01-17T14:31:22.861Z,16.25
2023-01-17T14:36:32.568Z,16.24
2023-01-17T14:41:35.173Z,16.23
2023-01-17T14:46:37.319Z,16.26
2023-01-17T14:51:39.409Z,16.28
2023-01-17T14:56:41.601Z,16.28
2023-01-17T15:02:06.294Z,16.24
2023-01-17T15:07:17.021Z,16.23
2023-01-17T15:12:19.739Z,16.22
2023-01-17T15:17:26.657Z,16.24
2023-01-17T15:22:30.168Z,16.26
2023-01-17T15:27:32.812Z,16.27
2023-01-17T15:32:34.999Z,16.28
2023-01-17T15:37:40.728Z,16.30
2023-01-17T15:42:43.891Z,16.32
2023-01-17T15:47:46.855Z,16.32
2023-01-17T15:52:54.179Z,16.30
2023-01-17T15:57:56.494Z,16.29
2023-01-17T16:02:59.736Z,16.30
2023-01-17T16:08:01.810Z,16.28
2023-01-17T16:13:09.182Z,16.29
2023-01-17T16:18:21.990Z,16.30
2023-01-17T16:23:24.163Z,16.32
2023-01-17T16:28:26.211Z,16.35
2023-01-17T16:33:28.295Z,16.34
2023-01-17T16:38:32.353Z,16.32
2023-01-17T16:43:34.534Z,16.35
2023-01-17T16:48:37.589Z,16.35
2023-01-17T16:53:39.632Z,16.28
2023-01-17T16:58:42.293Z,16.35
2023-01-17T17:03:44.934Z,16.36
2023-01-17T17:08:47.802Z,16.34
2023-01-17T17:13:51.190Z,16.34
2023-01-17T17:19:02.584Z,16.32
2023-01-17T17:24:05.149Z,16.32
2023-01-17T17:29:10.752Z,16.32
2023-01-17T17:34:14.533Z,16.32
2023-01-17T17:39:16.764Z,16.31
2023-01-17T17:44:18.849Z,16.32
2023-01-17T17:49:22.932Z,16.32
2023-01-17T17:54:27.511Z,16.31
2023-01-17T17:59:30.090Z,16.31
2023-01-17T18:04:32.397Z,16.33
2023-01-17T18:09:34.568Z,16.34
2023-01-17T18:14:37.048Z,16.33
2023-01-17T18:19:39.264Z,16.31
2023-01-17T18:24:41.348Z,16.31
2023-01-17T18:29:43.375Z,16.30
2023-01-17T18:34:45.863Z,16.33
2023-01-17T18:39:47.982Z,16.32
2023-01-17T18:44:50.130Z,16.31
2023-01-17T18:49:53.885Z,16.30
2023-01-17T18:54:56.062Z,16.26
2023-01-17T18:59:58.135Z,16.26
2023-01-17T19:05:01.959Z,16.25
2023-01-17T19:10:04.398Z,16.21
2023-01-17T19:15:07.155Z,16.16
2023-01-17T19:20:10.045Z,16.16
2023-01-17T19:25:12.330Z,16.14
2023-01-17T19:30:14.688Z,16.13
2023-01-17T19:35:17.719Z,16.13
2023-01-17T19:40:21.012Z,16.14
2023-01-17T19:45:23.183Z,16.18
2023-01-17T19:50:25.305Z,16.17
2023-01-17T19:55:27.395Z,16.12
2023-01-17T20:00:30.513Z,16.09
2023-01-17T20:05:33.887Z,16.08
2023-01-17T20:10:35.963Z,16.09
2023-01-17T20:15:38.080Z,16.12
2023-01-17T20:20:56.354Z,16.14
2023-01-17T20:26:03.646Z,16.16
2023-01-17T20:31:09.035Z,16.12
2023-01-17T20:36:15.301Z,16.10
2023-01-17T20:41:19.820Z,16.12
2023-01-17T20:46:25.214Z,16.14
2023-01-17T20:51:29.103Z,16.16
2023-01-17T20:56:34.686Z,16.14
2023-01-17T21:01:38.329Z,16.12
2023-01-17T21:06:42.486Z,16.12
2023-01-17T21:11:44.567Z,16.10
2023-01-17T21:16:46.705Z,16.10
2023-01-17T21:21:50.269Z,16.13
2023-01-17T21:26:52.702Z,16.13
2023-01-17T21:31:56.135Z,16.10
2023-01-17T21:36:58.238Z,16.12
2023-01-17T21:42:00.359Z,16.08
2023-01-17T21:47:03.331Z,16.04
2023-01-17T21:52:05.503Z,16.06
2023-01-17T21:57:26.423Z,16.07
2023-01-17T22:02:28.556Z,16.09
2023-01-17T22:07:30.792Z,16.10
2023-01-17T22:12:33.268Z,16.10
2023-01-17T22:17:38.506Z,16.07
2023-01-17T22:22:40.659Z,16.05
2023-01-17T22:27:42.730Z,16.08
2023-01-17T22:32:44.795Z,16.08
2023-01-17T22:37:47.632Z,16.10
2023-01-17T22:42:49.780Z,16.10
2023-01-17T22:47:52.331Z,16.07
2023-01-17T22:52:54.819Z,16.04
2023-01-17T22:57:57.302Z,16.03
2023-01-17T23:03:01.124Z,16.03
2023-01-17T23:08:03.479Z,16.03
2023-01-17T23:13:10.510Z,15.97
2023-01-17T23:18:31.164Z,16.04
2023-01-17T23:23:33.312Z,16.03
2023-01-17T23:28:35.327Z,16.05
2023-01-17T23:33:37.402Z,16.06
2023-01-17T23:38:43.837Z,16.06
2023-01-17T23:43:50.954Z,16.06
2023-01-17T23:48:53.127Z,16.07
2023-01-17T23:54:05.420Z,16.05
2023-01-17T23:59:07.934Z,16.06
